Independence — WDD6659 — position and weather

sailwx.info

Track history (hours):
 
Tides and Currents Weather Stations Pressure Air Temp Water Temp Dewpoint Dewpoint Depression Visibility Wind Speed Wind Dir Waves Ship Positions

Independence

Owner: Sortwell, Inc. DBA AmNav Maritime Services, Oakland, CA. More information available from US FCC via Universal Licensing System and Coast Guard Vessel Documentation Center.

Last reported at 2015-Aug-05 03:16 UTC. Time now 2015-Aug-05 04:23 UTC.
Position N 33°44' W 118°17'.

Length 24 m; draft 4.9 m.

Type: Tug. MMSI: 367175860.

Date/timePositionNaut miles runAvg speedWind from/ knotsBaromVisibWave heightAir tempDewpointWater temp
2015-Aug-05 03:16N 33°44' W 118°17'0 0.0
2015-Aug-05 02:25N 33°44' W 118°17'0 0.0
2015-Aug-05 01:33N 33°44' W 118°17'1 0.9
2015-Aug-05 00:33N 33°43' W 118°16'2 1.9
2015-Aug-04 23:33N 33°45' W 118°17'1 1.4
2015-Aug-04 22:34N 33°43' W 118°16'0 0.4
2015-Aug-04 21:34N 33°44' W 118°16'1 0.6
2015-Aug-04 20:33N 33°44' W 118°17'1 0.8
2015-Aug-04 19:33N 33°44' W 118°16'1 0.4
2015-Aug-04 18:23N 33°43' W 118°16'0 0.0
2015-Aug-04 17:34N 33°43' W 118°16'2 0.7
2015-Aug-04 15:11N 33°43' W 118°14'3 4.4
2015-Aug-04 14:33N 33°45' W 118°13'3 2.7
2015-Aug-04 13:20N 33°43' W 118°16'1 1.9
2015-Aug-04 12:33N 33°45' W 118°16'1 0.3
2015-Aug-04 09:33N 33°46' W 118°16'2 0.3
2015-Aug-04 02:19N 33°44' W 118°17'0 0.0
2015-Aug-04 01:28N 33°44' W 118°17'0 0.0
2015-Aug-04 00:21N 33°44' W 118°17'0 0.0
2015-Aug-03 23:30N 33°44' W 118°17'0 0.0
2015-Aug-03 21:22N 33°44' W 118°17'0 0.0
2015-Aug-03 19:30N 33°44' W 118°17'3 3.4
2015-Aug-03 18:33N 33°45' W 118°13'0 0.0
2015-Aug-03 17:33N 33°45' W 118°13'1 0.7
2015-Aug-03 16:33N 33°45' W 118°13'3 2.1
2015-Aug-03 15:07N 33°44' W 118°17'1 2.0
2015-Aug-03 14:33N 33°46' W 118°17'2 1.0
2015-Aug-03 12:27N 33°44' W 118°16'1 1.0
2015-Aug-03 11:09N 33°43' W 118°15'0 0.0
2015-Aug-03 10:33N 33°43' W 118°15'3 2.4
2015-Aug-03 09:27N 33°45' W 118°12'1 1.4
2015-Aug-03 08:28N 33°44' W 118°11'4 0.7
2015-Aug-03 02:32N 33°44' W 118°16'0 0.0
2015-Aug-03 01:22N 33°44' W 118°16'1 1.3
2015-Aug-03 00:33N 33°45' W 118°16'1 1.2
2015-Aug-02 23:33N 33°46' W 118°17'4 3.4
2015-Aug-02 22:30N 33°44' W 118°13'1 1.6
2015-Aug-02 21:33N 33°45' W 118°12'3 1.7
2015-Aug-02 19:33N 33°45' W 118°17'0 0.2
2015-Aug-02 18:33N 33°44' W 118°17'1 0.2
2015-Aug-02 11:13N 33°44' W 118°16'2 1.4
2015-Aug-02 10:04N 33°44' W 118°14'1 0.7
2015-Aug-02 08:33N 33°45' W 118°13'1 0.2
2015-Aug-02 04:28N 33°44' W 118°13'1 0.5
2015-Aug-02 01:31N 33°44' W 118°15'0 0.1
2015-Aug-02 00:29N 33°44' W 118°15'1 0.7
2015-Aug-01 22:33N 33°44' W 118°17'0 0.1
2015-Aug-01 21:33N 33°44' W 118°17'0 0.1
2015-Aug-01 17:30N 33°44' W 118°17'2 2.0
2015-Aug-01 16:33N 33°46' W 118°16'1 0.9
2015-Aug-01 15:33N 33°45' W 118°16'1 0.2
2015-Aug-01 13:03N 33°45' W 118°17'1 2.2
2015-Aug-01 12:33N 33°46' W 118°16'3 2.6
2015-Aug-01 11:26N 33°43' W 118°15'1 0.2
2015-Aug-01 05:16N 33°44' W 118°17'3 4.7
2015-Aug-01 04:33N 33°45' W 118°13'0 0.3
2015-Aug-01 03:33N 33°45' W 118°13'2 2.2
2015-Aug-01 02:33N 33°44' W 118°11'1 1.2
2015-Aug-01 01:33N 33°45' W 118°12'0 0.2
2015-Aug-01 00:34N 33°45' W 118°12'1 1.4
2015-Jul-31 23:34N 33°44' W 118°13'2 1.9
2015-Jul-31 22:33N 33°46' W 118°14'2 2.3
2015-Jul-31 21:33N 33°46' W 118°17'2 0.1
2015-Jul-30 23:12N 33°44' W 118°16'1 0.6
2015-Jul-30 21:20N 33°45' W 118°17'0 0.6
2015-Jul-30 20:33N 33°45' W 118°16'1 0.2
2015-Jul-30 15:29N 33°44' W 118°17'3 1.7
2015-Jul-30 13:34N 33°46' W 118°13'0 0.2
2015-Jul-30 12:33N 33°46' W 118°13'3 0.3
2015-Jul-30 02:31N 33°44' W 118°17'2 0.6
2015-Jul-29 23:33N 33°45' W 118°16'0 0.3
2015-Jul-29 22:33N 33°45' W 118°16'3 1.0
2015-Jul-29 19:32N 33°45' W 118°13'3 2.9
2015-Jul-29 18:30N 33°44' W 118°09'5 5.1
2015-Jul-29 17:33N 33°43' W 118°15'1 0.5
2015-Jul-29 16:17N 33°43' W 118°14'2 2.9
2015-Jul-29 15:33N 33°45' W 118°13'1 1.3
2015-Jul-29 14:33N 33°46' W 118°13'3 1.5
2015-Jul-29 12:20N 33°43' W 118°16'1 0.1
2015-Jul-28 23:07N 33°44' W 118°17'2 2.8
2015-Jul-28 22:26N 33°43' W 118°15'3 3.4
2015-Jul-28 21:33N 33°44' W 118°11'1 0.7
2015-Jul-28 20:25N 33°44' W 118°11'2 0.6
2015-Jul-28 16:27N 33°45' W 118°13'2 1.7
2015-Jul-28 15:33N 33°46' W 118°13'0 0.0
2015-Jul-28 14:33N 33°46' W 118°13'3 1.5
2015-Jul-28 12:33N 33°44' W 118°15'1 0.5
2015-Jul-28 11:33N 33°43' W 118°16'1 0.1
2015-Jul-28 03:33N 33°44' W 118°17'0 0.1
2015-Jul-28 02:33N 33°44' W 118°16'1 0.7
2015-Jul-28 01:33N 33°44' W 118°16'1 0.3
2015-Jul-27 21:19N 33°43' W 118°14'3 0.2
2015-Jul-27 02:33N 33°46' W 118°16'0 0.2
2015-Jul-27 01:33N 33°46' W 118°16'3 2.9
2015-Jul-27 00:32N 33°43' W 118°15'1 1.0
2015-Jul-26 23:26N 33°43' W 118°16'0 0.3
2015-Jul-26 22:33N 33°44' W 118°15'1 0.8
2015-Jul-26 21:30N 33°43' W 118°16'3 3.7
2015-Jul-26 20:33N 33°46' W 118°14'1 1.4
2015-Jul-26 19:33N 33°45' W 118°13'2 1.5
2015-Jul-26 18:30N 33°43' W 118°12'4 0.4
2015-Jul-26 08:19N 33°44' W 118°17'0 0.0
2015-Jul-26 07:33N 33°44' W 118°17'0 0.0
2015-Jul-26 06:33N 33°44' W 118°17'0 0.0
2015-Jul-26 04:10N 33°44' W 118°17'0 0.0
2015-Jul-26 03:33N 33°44' W 118°17'  
Track history (hours):
 
Tides and Currents Weather Stations Pressure Air Temp Water Temp Dewpoint Dewpoint Depression Visibility Wind Speed Wind Dir Waves Ship Positions

Independence

Owner: Sortwell, Inc. DBA AmNav Maritime Services, Oakland, CA. More information available from US FCC via Universal Licensing System and Coast Guard Vessel Documentation Center.

Last reported at 2015-Aug-05 03:16 UTC. Time now 2015-Aug-05 04:23 UTC.
Position N 33°44' W 118°17'.

Length 24 m; draft 4.9 m.

Type: Tug. MMSI: 367175860.

Date/timePositionNaut miles runAvg speedWind from/ knotsBaromVisibWave heightAir tempDewpointWater temp
2015-Aug-05 03:16N 33°44' W 118°17'0 0.0
2015-Aug-05 02:25N 33°44' W 118°17'0 0.0
2015-Aug-05 01:33N 33°44' W 118°17'1 0.9
2015-Aug-05 00:33N 33°43' W 118°16'2 1.9
2015-Aug-04 23:33N 33°45' W 118°17'1 1.4
2015-Aug-04 22:34N 33°43' W 118°16'0 0.4
2015-Aug-04 21:34N 33°44' W 118°16'1 0.6
2015-Aug-04 20:33N 33°44' W 118°17'1 0.8
2015-Aug-04 19:33N 33°44' W 118°16'1 0.4
2015-Aug-04 18:23N 33°43' W 118°16'0 0.0
2015-Aug-04 17:34N 33°43' W 118°16'2 0.7
2015-Aug-04 15:11N 33°43' W 118°14'3 4.4
2015-Aug-04 14:33N 33°45' W 118°13'3 2.7
2015-Aug-04 13:20N 33°43' W 118°16'1 1.9
2015-Aug-04 12:33N 33°45' W 118°16'1 0.3
2015-Aug-04 09:33N 33°46' W 118°16'2 0.3
2015-Aug-04 02:19N 33°44' W 118°17'0 0.0
2015-Aug-04 01:28N 33°44' W 118°17'0 0.0
2015-Aug-04 00:21N 33°44' W 118°17'0 0.0
2015-Aug-03 23:30N 33°44' W 118°17'0 0.0
2015-Aug-03 21:22N 33°44' W 118°17'0 0.0
2015-Aug-03 19:30N 33°44' W 118°17'3 3.4
2015-Aug-03 18:33N 33°45' W 118°13'0 0.0
2015-Aug-03 17:33N 33°45' W 118°13'1 0.7
2015-Aug-03 16:33N 33°45' W 118°13'3 2.1
2015-Aug-03 15:07N 33°44' W 118°17'1 2.0
2015-Aug-03 14:33N 33°46' W 118°17'2 1.0
2015-Aug-03 12:27N 33°44' W 118°16'1 1.0
2015-Aug-03 11:09N 33°43' W 118°15'0 0.0
2015-Aug-03 10:33N 33°43' W 118°15'3 2.4
2015-Aug-03 09:27N 33°45' W 118°12'1 1.4
2015-Aug-03 08:28N 33°44' W 118°11'4 0.7
2015-Aug-03 02:32N 33°44' W 118°16'0 0.0
2015-Aug-03 01:22N 33°44' W 118°16'1 1.3
2015-Aug-03 00:33N 33°45' W 118°16'1 1.2
2015-Aug-02 23:33N 33°46' W 118°17'4 3.4
2015-Aug-02 22:30N 33°44' W 118°13'1 1.6
2015-Aug-02 21:33N 33°45' W 118°12'3 1.7
2015-Aug-02 19:33N 33°45' W 118°17'0 0.2
2015-Aug-02 18:33N 33°44' W 118°17'1 0.2
2015-Aug-02 11:13N 33°44' W 118°16'2 1.4
2015-Aug-02 10:04N 33°44' W 118°14'1 0.7
2015-Aug-02 08:33N 33°45' W 118°13'1 0.2
2015-Aug-02 04:28N 33°44' W 118°13'1 0.5
2015-Aug-02 01:31N 33°44' W 118°15'0 0.1
2015-Aug-02 00:29N 33°44' W 118°15'1 0.7
2015-Aug-01 22:33N 33°44' W 118°17'0 0.1
2015-Aug-01 21:33N 33°44' W 118°17'0 0.1
2015-Aug-01 17:30N 33°44' W 118°17'2 2.0
2015-Aug-01 16:33N 33°46' W 118°16'1 0.9
2015-Aug-01 15:33N 33°45' W 118°16'1 0.2
2015-Aug-01 13:03N 33°45' W 118°17'1 2.2
2015-Aug-01 12:33N 33°46' W 118°16'3 2.6
2015-Aug-01 11:26N 33°43' W 118°15'1 0.2
2015-Aug-01 05:16N 33°44' W 118°17'3 4.7
2015-Aug-01 04:33N 33°45' W 118°13'0 0.3
2015-Aug-01 03:33N 33°45' W 118°13'2 2.2
2015-Aug-01 02:33N 33°44' W 118°11'1 1.2
2015-Aug-01 01:33N 33°45' W 118°12'0 0.2
2015-Aug-01 00:34N 33°45' W 118°12'1 1.4
2015-Jul-31 23:34N 33°44' W 118°13'2 1.9
2015-Jul-31 22:33N 33°46' W 118°14'2 2.3
2015-Jul-31 21:33N 33°46' W 118°17'2 0.1
2015-Jul-30 23:12N 33°44' W 118°16'1 0.6
2015-Jul-30 21:20N 33°45' W 118°17'0 0.6
2015-Jul-30 20:33N 33°45' W 118°16'1 0.2
2015-Jul-30 15:29N 33°44' W 118°17'3 1.7
2015-Jul-30 13:34N 33°46' W 118°13'0 0.2
2015-Jul-30 12:33N 33°46' W 118°13'3 0.3
2015-Jul-30 02:31N 33°44' W 118°17'2 0.6
2015-Jul-29 23:33N 33°45' W 118°16'0 0.3
2015-Jul-29 22:33N 33°45' W 118°16'3 1.0
2015-Jul-29 19:32N 33°45' W 118°13'3 2.9
2015-Jul-29 18:30N 33°44' W 118°09'5 5.1
2015-Jul-29 17:33N 33°43' W 118°15'1 0.5
2015-Jul-29 16:17N 33°43' W 118°14'2 2.9
2015-Jul-29 15:33N 33°45' W 118°13'1 1.3
2015-Jul-29 14:33N 33°46' W 118°13'3 1.5
2015-Jul-29 12:20N 33°43' W 118°16'1 0.1
2015-Jul-28 23:07N 33°44' W 118°17'2 2.8
2015-Jul-28 22:26N 33°43' W 118°15'3 3.4
2015-Jul-28 21:33N 33°44' W 118°11'1 0.7
2015-Jul-28 20:25N 33°44' W 118°11'2 0.6
2015-Jul-28 16:27N 33°45' W 118°13'2 1.7
2015-Jul-28 15:33N 33°46' W 118°13'0 0.0
2015-Jul-28 14:33N 33°46' W 118°13'3 1.5
2015-Jul-28 12:33N 33°44' W 118°15'1 0.5
2015-Jul-28 11:33N 33°43' W 118°16'1 0.1
2015-Jul-28 03:33N 33°44' W 118°17'0 0.1
2015-Jul-28 02:33N 33°44' W 118°16'1 0.7
2015-Jul-28 01:33N 33°44' W 118°16'1 0.3
2015-Jul-27 21:19N 33°43' W 118°14'3 0.2
2015-Jul-27 02:33N 33°46' W 118°16'0 0.2
2015-Jul-27 01:33N 33°46' W 118°16'3 2.9
2015-Jul-27 00:32N 33°43' W 118°15'1 1.0
2015-Jul-26 23:26N 33°43' W 118°16'0 0.3
2015-Jul-26 22:33N 33°44' W 118°15'1 0.8
2015-Jul-26 21:30N 33°43' W 118°16'3 3.7
2015-Jul-26 20:33N 33°46' W 118°14'1 1.4
2015-Jul-26 19:33N 33°45' W 118°13'2 1.5
2015-Jul-26 18:30N 33°43' W 118°12'4 0.4
2015-Jul-26 08:19N 33°44' W 118°17'0 0.0
2015-Jul-26 07:33N 33°44' W 118°17'0 0.0
2015-Jul-26 06:33N 33°44' W 118°17'0 0.0
2015-Jul-26 04:10N 33°44' W 118°17'0 0.0
2015-Jul-26 03:33N 33°44' W 118°17'  

Dump ship's entire track history